sensor_id;sensor_type;location;lat;lon;timestamp;temperature;humidity
39657;DHT22;25337;51.478;7.510;2022-08-05T00:00:28;20.30;99.90
39657;DHT22;25337;51.478;7.510;2022-08-05T00:02:54;20.30;99.90
39657;DHT22;25337;51.478;7.510;2022-08-05T00:05:20;20.30;99.90
39657;DHT22;25337;51.478;7.510;2022-08-05T00:07:45;20.30;99.90
39657;DHT22;25337;51.478;7.510;2022-08-05T00:10:11;20.20;99.90
39657;DHT22;25337;51.478;7.510;2022-08-05T00:12:37;20.20;99.90
39657;DHT22;25337;51.478;7.510;2022-08-05T00:15:04;20.20;99.90
39657;DHT22;25337;51.478;7.510;2022-08-05T00:17:29;20.30;99.90
39657;DHT22;25337;51.478;7.510;2022-08-05T00:19:55;20.20;99.90
39657;DHT22;25337;51.478;7.510;2022-08-05T00:22:21;20.20;99.90
39657;DHT22;25337;51.478;7.510;2022-08-05T00:24:46;20.10;99.90
39657;DHT22;25337;51.478;7.510;2022-08-05T00:27:12;20.00;99.90
39657;DHT22;25337;51.478;7.510;2022-08-05T00:29:37;19.90;99.90
39657;DHT22;25337;51.478;7.510;2022-08-05T00:32:03;19.90;99.90
39657;DHT22;25337;51.478;7.510;2022-08-05T00:34:30;19.80;99.90
39657;DHT22;25337;51.478;7.510;2022-08-05T00:36:55;19.70;99.90
39657;DHT22;25337;51.478;7.510;2022-08-05T00:39:21;19.60;99.90
39657;DHT22;25337;51.478;7.510;2022-08-05T00:41:47;19.60;99.90
39657;DHT22;25337;51.478;7.510;2022-08-05T00:44:12;19.50;99.90
39657;DHT22;25337;51.478;7.510;2022-08-05T00:46:38;19.40;99.90
39657;DHT22;25337;51.478;7.510;2022-08-05T00:49:04;19.40;99.90
39657;DHT22;25337;51.478;7.510;2022-08-05T00:51:29;19.30;99.90
39657;DHT22;25337;51.478;7.510;2022-08-05T00:53:55;19.20;99.90
39657;DHT22;25337;51.478;7.510;2022-08-05T00:56:21;19.20;99.90
39657;DHT22;25337;51.478;7.510;2022-08-05T00:58:47;19.10;99.90
39657;DHT22;25337;51.478;7.510;2022-08-05T01:01:13;19.00;99.90
39657;DHT22;25337;51.478;7.510;2022-08-05T01:03:42;18.90;99.90
39657;DHT22;25337;51.478;7.510;2022-08-05T01:06:08;18.80;99.90
39657;DHT22;25337;51.478;7.510;2022-08-05T01:08:34;18.70;99.90
39657;DHT22;25337;51.478;7.510;2022-08-05T01:11:05;18.60;99.90
39657;DHT22;25337;51.478;7.510;2022-08-05T01:13:46;18.60;99.90
39657;DHT22;25337;51.478;7.510;2022-08-05T01:16:20;18.50;99.90
39657;DHT22;25337;51.478;7.510;2022-08-05T01:18:50;18.40;99.90
39657;DHT22;25337;51.478;7.510;2022-08-05T01:21:51;18.30;99.90
39657;DHT22;25337;51.478;7.510;2022-08-05T01:30:04;18.40;99.90
39657;DHT22;25337;51.478;7.510;2022-08-05T01:32:34;18.40;99.90
39657;DHT22;25337;51.478;7.510;2022-08-05T01:35:05;18.50;99.90
39657;DHT22;25337;51.478;7.510;2022-08-05T01:37:39;18.50;99.90
39657;DHT22;25337;51.478;7.510;2022-08-05T01:40:09;18.50;99.90
39657;DHT22;25337;51.478;7.510;2022-08-05T01:42:37;18.50;99.90
39657;DHT22;25337;51.478;7.510;2022-08-05T01:45:05;18.50;99.90
39657;DHT22;25337;51.478;7.510;2022-08-05T01:47:33;18.50;99.90
39657;DHT22;25337;51.478;7.510;2022-08-05T01:50:03;18.50;99.90
39657;DHT22;25337;51.478;7.510;2022-08-05T01:52:30;18.60;99.90
39657;DHT22;25337;51.478;7.510;2022-08-05T01:55:00;18.70;99.90
39657;DHT22;25337;51.478;7.510;2022-08-05T01:57:29;18.70;99.90
39657;DHT22;25337;51.478;7.510;2022-08-05T01:59:59;18.80;99.90
39657;DHT22;25337;51.478;7.510;2022-08-05T02:02:27;18.80;99.90
39657;DHT22;25337;51.478;7.510;2022-08-05T02:05:02;18.80;99.90
39657;DHT22;25337;51.478;7.510;2022-08-05T02:07:30;18.90;99.90
39657;DHT22;25337;51.478;7.510;2022-08-05T02:09:57;19.00;99.90
39657;DHT22;25337;51.478;7.510;2022-08-05T02:15:16;19.20;99.90
39657;DHT22;25337;51.478;7.510;2022-08-05T02:18:00;19.40;99.90
39657;DHT22;25337;51.478;7.510;2022-08-05T02:20:31;19.50;99.90
39657;DHT22;25337;51.478;7.510;2022-08-05T02:23:00;19.60;99.90
39657;DHT22;25337;51.478;7.510;2022-08-05T02:25:31;19.60;99.90
39657;DHT22;25337;51.478;7.510;2022-08-05T02:27:59;19.60;99.90
39657;DHT22;25337;51.478;7.510;2022-08-05T02:30:29;19.60;99.90
39657;DHT22;25337;51.478;7.510;2022-08-05T02:32:57;19.70;99.90
39657;DHT22;25337;51.478;7.510;2022-08-05T02:35:25;19.70;99.90
39657;DHT22;25337;51.478;7.510;2022-08-05T02:37:54;19.60;99.90
39657;DHT22;25337;51.478;7.510;2022-08-05T02:40:21;19.70;99.90
39657;DHT22;25337;51.478;7.510;2022-08-05T02:42:49;19.70;99.90
39657;DHT22;25337;51.478;7.510;2022-08-05T02:45:15;19.70;99.90
39657;DHT22;25337;51.478;7.510;2022-08-05T02:47:42;19.80;99.90
39657;DHT22;25337;51.478;7.510;2022-08-05T02:50:09;19.90;99.90
39657;DHT22;25337;51.478;7.510;2022-08-05T02:52:39;19.90;99.90
39657;DHT22;25337;51.478;7.510;2022-08-05T02:55:05;19.90;99.90
39657;DHT22;25337;51.478;7.510;2022-08-05T02:57:34;20.00;99.90
39657;DHT22;25337;51.478;7.510;2022-08-05T03:00:00;20.00;99.90
39657;DHT22;25337;51.478;7.510;2022-08-05T03:02:30;19.90;99.90
39657;DHT22;25337;51.478;7.510;2022-08-05T03:04:56;19.90;99.90
39657;DHT22;25337;51.478;7.510;2022-08-05T03:07:24;19.70;99.90
39657;DHT22;25337;51.478;7.510;2022-08-05T03:09:51;19.70;99.90
39657;DHT22;25337;51.478;7.510;2022-08-05T03:14:56;19.50;99.90
39657;DHT22;25337;51.478;7.510;2022-08-05T03:17:22;19.40;99.90
39657;DHT22;25337;51.478;7.510;2022-08-05T03:19:47;19.40;99.90
39657;DHT22;25337;51.478;7.510;2022-08-05T03:22:13;19.30;99.90
39657;DHT22;25337;51.478;7.510;2022-08-05T03:24:43;19.10;99.90
39657;DHT22;25337;51.478;7.510;2022-08-05T03:27:10;18.90;99.90
39657;DHT22;25337;51.478;7.510;2022-08-05T03:29:37;18.80;99.90
39657;DHT22;25337;51.478;7.510;2022-08-05T03:32:06;18.70;99.90
39657;DHT22;25337;51.478;7.510;2022-08-05T03:34:33;18.70;99.90
39657;DHT22;25337;51.478;7.510;2022-08-05T03:36:59;18.50;99.90
39657;DHT22;25337;51.478;7.510;2022-08-05T03:39:25;18.50;99.90
39657;DHT22;25337;51.478;7.510;2022-08-05T03:41:50;18.50;99.90
39657;DHT22;25337;51.478;7.510;2022-08-05T03:44:16;18.30;99.90
39657;DHT22;25337;51.478;7.510;2022-08-05T03:46:42;18.10;99.90
39657;DHT22;25337;51.478;7.510;2022-08-05T03:49:07;18.00;99.90
39657;DHT22;25337;51.478;7.510;2022-08-05T03:51:45;18.10;99.90
39657;DHT22;25337;51.478;7.510;2022-08-05T03:54:18;18.00;99.90
39657;DHT22;25337;51.478;7.510;2022-08-05T03:56:46;17.80;99.90
39657;DHT22;25337;51.478;7.510;2022-08-05T03:59:20;17.80;99.90
39657;DHT22;25337;51.478;7.510;2022-08-05T04:01:49;17.80;99.90
39657;DHT22;25337;51.478;7.510;2022-08-05T04:04:16;17.70;99.90
39657;DHT22;25337;51.478;7.510;2022-08-05T04:06:43;17.70;99.90
39657;DHT22;25337;51.478;7.510;2022-08-05T04:09:09;17.70;99.90
39657;DHT22;25337;51.478;7.510;2022-08-05T04:11:36;17.60;99.90
39657;DHT22;25337;51.478;7.510;2022-08-05T04:14:03;17.60;99.90
39657;DHT22;25337;51.478;7.510;2022-08-05T04:16:30;17.50;99.90
39657;DHT22;25337;51.478;7.510;2022-08-05T04:18:56;17.40;99.90
39657;DHT22;25337;51.478;7.510;2022-08-05T04:21:22;17.50;99.90
39657;DHT22;25337;51.478;7.510;2022-08-05T04:23:48;17.40;99.90
39657;DHT22;25337;51.478;7.510;2022-08-05T04:26:14;17.30;99.90
39657;DHT22;25337;51.478;7.510;2022-08-05T04:28:40;17.40;99.90
39657;DHT22;25337;51.478;7.510;2022-08-05T04:31:05;17.50;99.90
39657;DHT22;25337;51.478;7.510;2022-08-05T04:33:31;17.60;99.90
39657;DHT22;25337;51.478;7.510;2022-08-05T04:35:57;17.60;99.90
39657;DHT22;25337;51.478;7.510;2022-08-05T04:38:22;17.70;99.90
39657;DHT22;25337;51.478;7.510;2022-08-05T04:40:48;17.70;99.90
39657;DHT22;25337;51.478;7.510;2022-08-05T04:43:14;17.70;99.90
39657;DHT22;25337;51.478;7.510;2022-08-05T04:45:40;17.70;99.90
39657;DHT22;25337;51.478;7.510;2022-08-05T04:48:13;17.70;99.90
39657;DHT22;25337;51.478;7.510;2022-08-05T04:50:44;17.70;99.90
39657;DHT22;25337;51.478;7.510;2022-08-05T04:53:11;17.70;99.90
39657;DHT22;25337;51.478;7.510;2022-08-05T04:55:38;17.70;99.90
39657;DHT22;25337;51.478;7.510;2022-08-05T04:58:05;17.70;99.90
39657;DHT22;25337;51.478;7.510;2022-08-05T05:00:32;17.70;99.90
39657;DHT22;25337;51.478;7.510;2022-08-05T05:02:58;17.70;99.90
39657;DHT22;25337;51.478;7.510;2022-08-05T05:05:23;17.80;99.90
39657;DHT22;25337;51.478;7.510;2022-08-05T05:07:49;17.80;99.90
39657;DHT22;25337;51.478;7.510;2022-08-05T05:10:14;17.80;99.90
39657;DHT22;25337;51.478;7.510;2022-08-05T05:12:40;17.80;99.90
39657;DHT22;25337;51.478;7.510;2022-08-05T05:15:06;17.80;99.90
39657;DHT22;25337;51.478;7.510;2022-08-05T05:17:39;18.00;99.90
39657;DHT22;25337;51.478;7.510;2022-08-05T05:20:06;18.10;99.90
39657;DHT22;25337;51.478;7.510;2022-08-05T05:22:32;18.00;99.90
39657;DHT22;25337;51.478;7.510;2022-08-05T05:24:58;18.00;99.90
39657;DHT22;25337;51.478;7.510;2022-08-05T05:27:24;18.00;99.90
39657;DHT22;25337;51.478;7.510;2022-08-05T05:29:50;18.00;99.90
39657;DHT22;25337;51.478;7.510;2022-08-05T05:32:15;18.00;99.90
39657;DHT22;25337;51.478;7.510;2022-08-05T05:34:41;18.00;99.90
39657;DHT22;25337;51.478;7.510;2022-08-05T05:37:06;17.90;99.90
39657;DHT22;25337;51.478;7.510;2022-08-05T05:39:32;17.90;99.90
39657;DHT22;25337;51.478;7.510;2022-08-05T05:41:58;17.90;99.90
39657;DHT22;25337;51.478;7.510;2022-08-05T05:44:23;18.00;99.90
39657;DHT22;25337;51.478;7.510;2022-08-05T05:46:49;18.00;99.90
39657;DHT22;25337;51.478;7.510;2022-08-05T05:49:15;18.00;99.90
39657;DHT22;25337;51.478;7.510;2022-08-05T05:51:40;18.00;99.90
39657;DHT22;25337;51.478;7.510;2022-08-05T05:54:06;18.00;99.90
39657;DHT22;25337;51.478;7.510;2022-08-05T05:56:31;18.00;99.90
39657;DHT22;25337;51.478;7.510;2022-08-05T05:58:57;18.00;99.90
39657;DHT22;25337;51.478;7.510;2022-08-05T06:01:23;18.00;99.90
39657;DHT22;25337;51.478;7.510;2022-08-05T06:03:48;17.90;99.90
39657;DHT22;25337;51.478;7.510;2022-08-05T06:06:14;17.90;99.90
39657;DHT22;25337;51.478;7.510;2022-08-05T06:08:39;18.00;99.90
39657;DHT22;25337;51.478;7.510;2022-08-05T06:11:05;18.00;99.90
39657;DHT22;25337;51.478;7.510;2022-08-05T06:13:31;18.10;99.90
39657;DHT22;25337;51.478;7.510;2022-08-05T06:15:56;18.10;99.90
39657;DHT22;25337;51.478;7.510;2022-08-05T06:18:22;18.10;99.90
39657;DHT22;25337;51.478;7.510;2022-08-05T06:20:50;18.20;99.90
39657;DHT22;25337;51.478;7.510;2022-08-05T06:23:15;18.10;99.90
39657;DHT22;25337;51.478;7.510;2022-08-05T06:25:41;18.10;99.90
39657;DHT22;25337;51.478;7.510;2022-08-05T06:28:06;18.10;99.90
39657;DHT22;25337;51.478;7.510;2022-08-05T06:30:32;18.10;99.90
39657;DHT22;25337;51.478;7.510;2022-08-05T06:32:58;18.10;99.90
39657;DHT22;25337;51.478;7.510;2022-08-05T06:35:23;18.20;99.90
39657;DHT22;25337;51.478;7.510;2022-08-05T06:37:49;18.10;99.90
39657;DHT22;25337;51.478;7.510;2022-08-05T06:40:15;18.10;99.90
39657;DHT22;25337;51.478;7.510;2022-08-05T06:42:40;18.10;99.90
39657;DHT22;25337;51.478;7.510;2022-08-05T06:45:07;18.20;99.90
39657;DHT22;25337;51.478;7.510;2022-08-05T06:47:33;18.20;99.90
39657;DHT22;25337;51.478;7.510;2022-08-05T06:49:58;18.30;99.90
39657;DHT22;25337;51.478;7.510;2022-08-05T06:52:24;18.20;99.90
39657;DHT22;25337;51.478;7.510;2022-08-05T06:54:49;18.10;99.90
39657;DHT22;25337;51.478;7.510;2022-08-05T06:57:15;18.30;99.90
39657;DHT22;25337;51.478;7.510;2022-08-05T06:59:43;18.20;99.90
39657;DHT22;25337;51.478;7.510;2022-08-05T07:02:08;18.20;99.90
39657;DHT22;25337;51.478;7.510;2022-08-05T07:04:34;18.20;99.90
39657;DHT22;25337;51.478;7.510;2022-08-05T07:07:00;18.20;99.90
39657;DHT22;25337;51.478;7.510;2022-08-05T07:09:26;18.20;99.90
39657;DHT22;25337;51.478;7.510;2022-08-05T07:11:51;18.20;99.90
39657;DHT22;25337;51.478;7.510;2022-08-05T07:14:20;18.20;99.90
39657;DHT22;25337;51.478;7.510;2022-08-05T07:17:04;18.10;99.90
39657;DHT22;25337;51.478;7.510;2022-08-05T07:19:29;18.10;99.90
39657;DHT22;25337;51.478;7.510;2022-08-05T07:21:55;18.10;99.90
39657;DHT22;25337;51.478;7.510;2022-08-05T07:24:22;18.20;99.90
39657;DHT22;25337;51.478;7.510;2022-08-05T07:26:48;18.10;99.90
39657;DHT22;25337;51.478;7.510;2022-08-05T07:29:14;18.00;99.90
39657;DHT22;25337;51.478;7.510;2022-08-05T07:31:40;17.90;99.90
39657;DHT22;25337;51.478;7.510;2022-08-05T07:34:06;17.80;99.90
39657;DHT22;25337;51.478;7.510;2022-08-05T07:36:32;17.80;99.90
39657;DHT22;25337;51.478;7.510;2022-08-05T07:38:59;17.70;99.90
39657;DHT22;25337;51.478;7.510;2022-08-05T07:41:26;17.50;99.90
39657;DHT22;25337;51.478;7.510;2022-08-05T07:43:52;17.40;99.90
39657;DHT22;25337;51.478;7.510;2022-08-05T07:46:18;17.30;99.90
39657;DHT22;25337;51.478;7.510;2022-08-05T07:48:44;17.30;99.90
39657;DHT22;25337;51.478;7.510;2022-08-05T07:51:10;17.30;99.90
39657;DHT22;25337;51.478;7.510;2022-08-05T07:53:35;17.30;99.90
39657;DHT22;25337;51.478;7.510;2022-08-05T07:56:03;17.40;99.90
39657;DHT22;25337;51.478;7.510;2022-08-05T07:58:28;17.40;99.90
39657;DHT22;25337;51.478;7.510;2022-08-05T08:00:54;17.20;99.90
39657;DHT22;25337;51.478;7.510;2022-08-05T08:03:20;17.20;99.90
39657;DHT22;25337;51.478;7.510;2022-08-05T08:05:45;17.20;99.90
39657;DHT22;25337;51.478;7.510;2022-08-05T08:08:12;17.10;99.90
39657;DHT22;25337;51.478;7.510;2022-08-05T08:10:38;17.10;99.90
39657;DHT22;25337;51.478;7.510;2022-08-05T08:13:05;17.10;99.90
39657;DHT22;25337;51.478;7.510;2022-08-05T08:15:31;17.10;99.90
39657;DHT22;25337;51.478;7.510;2022-08-05T08:17:56;17.00;99.90
39657;DHT22;25337;51.478;7.510;2022-08-05T08:20:23;17.00;99.90
39657;DHT22;25337;51.478;7.510;2022-08-05T08:22:54;16.90;99.90
39657;DHT22;25337;51.478;7.510;2022-08-05T08:25:20;16.90;99.90
39657;DHT22;25337;51.478;7.510;2022-08-05T08:27:46;17.00;99.90
39657;DHT22;25337;51.478;7.510;2022-08-05T08:30:12;17.10;99.90
39657;DHT22;25337;51.478;7.510;2022-08-05T08:32:38;17.00;99.90
39657;DHT22;25337;51.478;7.510;2022-08-05T08:35:04;17.00;99.90
39657;DHT22;25337;51.478;7.510;2022-08-05T08:37:30;17.00;99.90
39657;DHT22;25337;51.478;7.510;2022-08-05T08:39:56;17.00;99.90
39657;DHT22;25337;51.478;7.510;2022-08-05T08:42:22;17.00;99.90
39657;DHT22;25337;51.478;7.510;2022-08-05T08:44:48;17.20;99.90
39657;DHT22;25337;51.478;7.510;2022-08-05T08:47:15;17.10;99.90
39657;DHT22;25337;51.478;7.510;2022-08-05T08:49:44;17.00;99.90
39657;DHT22;25337;51.478;7.510;2022-08-05T08:52:12;17.10;99.90
39657;DHT22;25337;51.478;7.510;2022-08-05T08:54:39;17.20;99.90
39657;DHT22;25337;51.478;7.510;2022-08-05T08:57:05;17.20;99.90
39657;DHT22;25337;51.478;7.510;2022-08-05T08:59:32;17.20;99.90
39657;DHT22;25337;51.478;7.510;2022-08-05T09:01:59;17.10;99.90
39657;DHT22;25337;51.478;7.510;2022-08-05T09:04:26;17.20;99.90
39657;DHT22;25337;51.478;7.510;2022-08-05T09:06:52;17.10;99.90
39657;DHT22;25337;51.478;7.510;2022-08-05T09:09:18;17.10;99.90
39657;DHT22;25337;51.478;7.510;2022-08-05T09:11:44;17.20;99.90
39657;DHT22;25337;51.478;7.510;2022-08-05T09:14:10;17.40;99.90
39657;DHT22;25337;51.478;7.510;2022-08-05T09:16:38;17.30;99.90
39657;DHT22;25337;51.478;7.510;2022-08-05T09:19:03;17.30;99.90
39657;DHT22;25337;51.478;7.510;2022-08-05T09:21:29;17.30;99.90
39657;DHT22;25337;51.478;7.510;2022-08-05T09:24:06;17.30;99.90
39657;DHT22;25337;51.478;7.510;2022-08-05T09:26:37;17.30;99.90
39657;DHT22;25337;51.478;7.510;2022-08-05T09:29:05;17.10;99.90
39657;DHT22;25337;51.478;7.510;2022-08-05T09:31:32;17.10;99.90
39657;DHT22;25337;51.478;7.510;2022-08-05T09:34:01;17.10;99.90
39657;DHT22;25337;51.478;7.510;2022-08-05T09:39:11;17.10;99.90
39657;DHT22;25337;51.478;7.510;2022-08-05T09:47:06;17.40;99.90
39657;DHT22;25337;51.478;7.510;2022-08-05T09:49:32;17.40;99.90
39657;DHT22;25337;51.478;7.510;2022-08-05T09:51:58;17.50;99.90
39657;DHT22;25337;51.478;7.510;2022-08-05T09:54:30;17.40;99.90
39657;DHT22;25337;51.478;7.510;2022-08-05T09:56:56;17.70;99.90
39657;DHT22;25337;51.478;7.510;2022-08-05T09:59:23;17.80;99.90
39657;DHT22;25337;51.478;7.510;2022-08-05T10:01:49;18.10;99.90
39657;DHT22;25337;51.478;7.510;2022-08-05T10:04:17;18.30;99.90
39657;DHT22;25337;51.478;7.510;2022-08-05T10:06:54;18.30;99.90
39657;DHT22;25337;51.478;7.510;2022-08-05T10:09:20;18.30;99.90
39657;DHT22;25337;51.478;7.510;2022-08-05T10:11:47;18.40;99.90
39657;DHT22;25337;51.478;7.510;2022-08-05T10:14:23;18.20;99.90
39657;DHT22;25337;51.478;7.510;2022-08-05T10:16:49;18.20;99.90
39657;DHT22;25337;51.478;7.510;2022-08-05T10:19:15;18.10;99.90
39657;DHT22;25337;51.478;7.510;2022-08-05T10:21:41;17.90;99.90
39657;DHT22;25337;51.478;7.510;2022-08-05T10:24:11;17.80;99.90
39657;DHT22;25337;51.478;7.510;2022-08-05T10:26:41;17.70;99.90
39657;DHT22;25337;51.478;7.510;2022-08-05T10:29:08;17.70;99.90
39657;DHT22;25337;51.478;7.510;2022-08-05T10:31:35;17.70;99.90
39657;DHT22;25337;51.478;7.510;2022-08-05T10:34:02;17.70;99.90
39657;DHT22;25337;51.478;7.510;2022-08-05T10:36:28;17.80;99.90
39657;DHT22;25337;51.478;7.510;2022-08-05T10:38:59;17.70;99.90
39657;DHT22;25337;51.478;7.510;2022-08-05T10:41:31;17.60;99.90
39657;DHT22;25337;51.478;7.510;2022-08-05T10:44:04;17.60;99.90
39657;DHT22;25337;51.478;7.510;2022-08-05T10:47:09;17.60;99.90
39657;DHT22;25337;51.478;7.510;2022-08-05T10:52:51;17.90;99.90
39657;DHT22;25337;51.478;7.510;2022-08-05T10:55:22;18.10;99.90
39657;DHT22;25337;51.478;7.510;2022-08-05T10:57:48;18.10;99.90
39657;DHT22;25337;51.478;7.510;2022-08-05T11:00:30;18.10;99.90
39657;DHT22;25337;51.478;7.510;2022-08-05T11:05:32;17.80;99.90
39657;DHT22;25337;51.478;7.510;2022-08-05T11:07:59;17.60;99.90
39657;DHT22;25337;51.478;7.510;2022-08-05T11:10:27;17.80;99.90
39657;DHT22;25337;51.478;7.510;2022-08-05T11:12:53;17.80;99.90
39657;DHT22;25337;51.478;7.510;2022-08-05T11:15:25;18.00;99.90
39657;DHT22;25337;51.478;7.510;2022-08-05T11:20:53;18.60;99.90
39657;DHT22;25337;51.478;7.510;2022-08-05T11:26:19;19.30;99.90
39657;DHT22;25337;51.478;7.510;2022-08-05T11:28:50;19.50;99.90
39657;DHT22;25337;51.478;7.510;2022-08-05T11:36:11;19.10;99.90
39657;DHT22;25337;51.478;7.510;2022-08-05T11:41:17;19.90;99.90
39657;DHT22;25337;51.478;7.510;2022-08-05T11:43:59;20.40;99.90
39657;DHT22;25337;51.478;7.510;2022-08-05T11:49:11;21.80;99.90
39657;DHT22;25337;51.478;7.510;2022-08-05T11:51:43;21.20;99.90
39657;DHT22;25337;51.478;7.510;2022-08-05T11:54:11;22.00;99.90
39657;DHT22;25337;51.478;7.510;2022-08-05T11:59:15;26.00;99.90
39657;DHT22;25337;51.478;7.510;2022-08-05T12:02:14;25.10;99.90
39657;DHT22;25337;51.478;7.510;2022-08-05T12:04:41;26.10;99.90
39657;DHT22;25337;51.478;7.510;2022-08-05T12:07:09;25.50;99.90
39657;DHT22;25337;51.478;7.510;2022-08-05T12:09:41;26.10;99.90
39657;DHT22;25337;51.478;7.510;2022-08-05T12:12:07;28.20;97.30
39657;DHT22;25337;51.478;7.510;2022-08-05T12:14:41;29.60;94.70
39657;DHT22;25337;51.478;7.510;2022-08-05T12:19:50;26.50;97.70
39657;DHT22;25337;51.478;7.510;2022-08-05T12:22:18;25.90;99.00
39657;DHT22;25337;51.478;7.510;2022-08-05T12:24:47;24.10;99.90
39657;DHT22;25337;51.478;7.510;2022-08-05T12:27:21;24.50;99.90
39657;DHT22;25337;51.478;7.510;2022-08-05T12:30:06;26.70;99.00
39657;DHT22;25337;51.478;7.510;2022-08-05T12:32:33;26.90;99.50
39657;DHT22;25337;51.478;7.510;2022-08-05T12:35:04;29.20;94.00
39657;DHT22;25337;51.478;7.510;2022-08-05T12:37:30;28.20;93.30
39657;DHT22;25337;51.478;7.510;2022-08-05T12:39:57;28.60;92.10
39657;DHT22;25337;51.478;7.510;2022-08-05T12:42:28;28.00;94.10
39657;DHT22;25337;51.478;7.510;2022-08-05T12:45:04;27.40;93.10
39657;DHT22;25337;51.478;7.510;2022-08-05T12:47:31;26.30;95.80
39657;DHT22;25337;51.478;7.510;2022-08-05T12:49:58;25.10;97.10
39657;DHT22;25337;51.478;7.510;2022-08-05T12:52:24;24.70;99.40
39657;DHT22;25337;51.478;7.510;2022-08-05T12:54:50;24.60;98.30
39657;DHT22;25337;51.478;7.510;2022-08-05T12:57:16;24.30;99.90
39657;DHT22;25337;51.478;7.510;2022-08-05T12:59:53;24.30;99.90
39657;DHT22;25337;51.478;7.510;2022-08-05T13:02:23;24.00;99.90
39657;DHT22;25337;51.478;7.510;2022-08-05T13:04:50;24.80;99.90
39657;DHT22;25337;51.478;7.510;2022-08-05T13:07:19;27.60;95.00
39657;DHT22;25337;51.478;7.510;2022-08-05T13:09:53;29.30;91.80
39657;DHT22;25337;51.478;7.510;2022-08-05T13:12:24;28.20;91.20
39657;DHT22;25337;51.478;7.510;2022-08-05T13:14:57;26.50;94.60
39657;DHT22;25337;51.478;7.510;2022-08-05T13:17:30;25.30;98.40
39657;DHT22;25337;51.478;7.510;2022-08-05T13:20:02;27.40;96.20
39657;DHT22;25337;51.478;7.510;2022-08-05T13:22:30;25.50;95.80
39657;DHT22;25337;51.478;7.510;2022-08-05T13:25:01;25.20;96.70
39657;DHT22;25337;51.478;7.510;2022-08-05T13:27:39;24.90;96.10
39657;DHT22;25337;51.478;7.510;2022-08-05T13:30:10;24.20;98.70
39657;DHT22;25337;51.478;7.510;2022-08-05T13:32:36;23.70;99.80
39657;DHT22;25337;51.478;7.510;2022-08-05T13:35:02;22.80;99.90
39657;DHT22;25337;51.478;7.510;2022-08-05T13:37:27;22.80;99.90
39657;DHT22;25337;51.478;7.510;2022-08-05T13:39:53;22.40;99.90
39657;DHT22;25337;51.478;7.510;2022-08-05T13:42:21;22.50;99.90
39657;DHT22;25337;51.478;7.510;2022-08-05T13:44:53;22.60;99.90
39657;DHT22;25337;51.478;7.510;2022-08-05T13:47:20;22.60;99.90
39657;DHT22;25337;51.478;7.510;2022-08-05T13:49:46;22.70;99.90
39657;DHT22;25337;51.478;7.510;2022-08-05T13:52:13;23.10;99.90
39657;DHT22;25337;51.478;7.510;2022-08-05T13:54:39;23.30;99.90
39657;DHT22;25337;51.478;7.510;2022-08-05T13:57:06;26.10;99.20
39657;DHT22;25337;51.478;7.510;2022-08-05T13:59:33;28.50;94.40
39657;DHT22;25337;51.478;7.510;2022-08-05T14:01:59;30.30;89.50
39657;DHT22;25337;51.478;7.510;2022-08-05T14:04:46;31.20;84.60
39657;DHT22;25337;51.478;7.510;2022-08-05T14:07:34;31.60;83.20
39657;DHT22;25337;51.478;7.510;2022-08-05T14:10:01;32.60;79.10
39657;DHT22;25337;51.478;7.510;2022-08-05T14:12:27;30.50;79.40
39657;DHT22;25337;51.478;7.510;2022-08-05T14:14:53;28.50;81.10
39657;DHT22;25337;51.478;7.510;2022-08-05T14:17:18;27.30;84.60
39657;DHT22;25337;51.478;7.510;2022-08-05T14:19:44;25.70;90.60
39657;DHT22;25337;51.478;7.510;2022-08-05T14:22:10;25.70;91.80
39657;DHT22;25337;51.478;7.510;2022-08-05T14:24:36;25.60;91.80
39657;DHT22;25337;51.478;7.510;2022-08-05T14:27:04;25.40;91.70
39657;DHT22;25337;51.478;7.510;2022-08-05T14:29:30;25.00;92.60
39657;DHT22;25337;51.478;7.510;2022-08-05T14:31:55;24.30;95.20
39657;DHT22;25337;51.478;7.510;2022-08-05T14:34:21;23.50;98.70
39657;DHT22;25337;51.478;7.510;2022-08-05T14:36:47;22.90;99.90
39657;DHT22;25337;51.478;7.510;2022-08-05T14:39:12;22.20;99.90
39657;DHT22;25337;51.478;7.510;2022-08-05T14:41:38;21.90;99.90
39657;DHT22;25337;51.478;7.510;2022-08-05T14:44:04;21.50;99.90
39657;DHT22;25337;51.478;7.510;2022-08-05T14:46:31;21.30;99.90
39657;DHT22;25337;51.478;7.510;2022-08-05T14:48:59;21.10;99.90
39657;DHT22;25337;51.478;7.510;2022-08-05T14:51:24;20.80;99.90
39657;DHT22;25337;51.478;7.510;2022-08-05T14:53:50;20.90;99.90
39657;DHT22;25337;51.478;7.510;2022-08-05T14:56:16;21.10;99.90
39657;DHT22;25337;51.478;7.510;2022-08-05T14:58:42;21.30;99.90
39657;DHT22;25337;51.478;7.510;2022-08-05T15:01:08;21.50;99.90
39657;DHT22;25337;51.478;7.510;2022-08-05T15:03:33;21.60;99.80
39657;DHT22;25337;51.478;7.510;2022-08-05T15:06:00;21.70;99.90
39657;DHT22;25337;51.478;7.510;2022-08-05T15:08:25;21.70;99.90
39657;DHT22;25337;51.478;7.510;2022-08-05T15:10:51;21.70;99.90
39657;DHT22;25337;51.478;7.510;2022-08-05T15:13:17;21.50;99.90
39657;DHT22;25337;51.478;7.510;2022-08-05T15:15:43;21.80;99.70
39657;DHT22;25337;51.478;7.510;2022-08-05T15:18:09;21.70;99.20
39657;DHT22;25337;51.478;7.510;2022-08-05T15:20:35;21.50;99.90
39657;DHT22;25337;51.478;7.510;2022-08-05T15:23:05;21.80;99.90
39657;DHT22;25337;51.478;7.510;2022-08-05T15:25:31;21.60;99.90
39657;DHT22;25337;51.478;7.510;2022-08-05T15:27:57;21.80;99.90
39657;DHT22;25337;51.478;7.510;2022-08-05T15:30:23;22.10;99.50
39657;DHT22;25337;51.478;7.510;2022-08-05T15:32:49;22.20;98.90
39657;DHT22;25337;51.478;7.510;2022-08-05T15:35:14;22.50;98.70
39657;DHT22;25337;51.478;7.510;2022-08-05T15:37:40;23.90;97.20
39657;DHT22;25337;51.478;7.510;2022-08-05T15:40:06;26.10;94.50
39657;DHT22;25337;51.478;7.510;2022-08-05T15:42:32;27.60;90.00
39657;DHT22;25337;51.478;7.510;2022-08-05T15:44:58;29.00;85.30
39657;DHT22;25337;51.478;7.510;2022-08-05T15:47:24;29.40;81.30
39657;DHT22;25337;51.478;7.510;2022-08-05T15:49:50;28.40;79.50
39657;DHT22;25337;51.478;7.510;2022-08-05T15:52:20;26.90;83.50
39657;DHT22;25337;51.478;7.510;2022-08-05T15:54:46;27.30;84.90
39657;DHT22;25337;51.478;7.510;2022-08-05T15:57:12;28.80;81.60
39657;DHT22;25337;51.478;7.510;2022-08-05T15:59:38;27.80;81.90
39657;DHT22;25337;51.478;7.510;2022-08-05T16:02:04;27.50;81.50
39657;DHT22;25337;51.478;7.510;2022-08-05T16:04:30;26.80;81.00
39657;DHT22;25337;51.478;7.510;2022-08-05T16:06:55;27.20;80.30
39657;DHT22;25337;51.478;7.510;2022-08-05T16:09:21;27.30;79.40
39657;DHT22;25337;51.478;7.510;2022-08-05T16:11:47;27.70;75.60
39657;DHT22;25337;51.478;7.510;2022-08-05T16:14:13;28.00;75.20
39657;DHT22;25337;51.478;7.510;2022-08-05T16:16:39;28.30;70.40
39657;DHT22;25337;51.478;7.510;2022-08-05T16:19:05;28.70;70.60